createdAt,value
2018-04-13T00:00:03.023Z,69.6
2018-04-13T00:01:02.950Z,70.13
2018-04-13T00:02:03.062Z,70.1
2018-04-13T00:03:02.952Z,70.21
2018-04-13T00:04:02.953Z,69.86
2018-04-13T00:05:03.013Z,69.33
2018-04-13T00:06:03.010Z,69.03
2018-04-13T00:07:02.989Z,69.22
2018-04-13T00:08:03.069Z,69.22
2018-04-13T00:09:02.977Z,69.4
2018-04-13T00:10:02.953Z,69.62
2018-04-13T00:11:02.946Z,69.48
2018-04-13T00:12:03.126Z,69.68
2018-04-13T00:13:02.957Z,69.53
2018-04-13T00:14:02.936Z,69.55
2018-04-13T00:15:02.941Z,69.51
2018-04-13T00:16:02.940Z,69.32
2018-04-13T00:17:02.955Z,69.15
2018-04-13T00:18:03.014Z,69.71
2018-04-13T00:19:02.931Z,69.29
2018-04-13T00:20:02.942Z,69.44
2018-04-13T00:21:02.931Z,69.46
2018-04-13T00:22:02.963Z,69.49
2018-04-13T00:23:02.941Z,69.46
2018-04-13T00:24:02.945Z,69.45
2018-04-13T00:25:02.942Z,70.63
2018-04-13T00:26:02.917Z,70.57
2018-04-13T00:27:02.976Z,70.06
2018-04-13T00:28:02.917Z,70.38
2018-04-13T00:29:02.915Z,70.18
2018-04-13T00:30:02.909Z,70.11
2018-04-13T00:31:02.927Z,70.46
2018-04-13T00:32:02.945Z,70.36
2018-04-13T00:33:02.908Z,69.7
2018-04-13T00:34:02.898Z,71.33
2018-04-13T00:35:02.911Z,71.23
2018-04-13T00:36:02.913Z,71.2
2018-04-13T00:37:02.933Z,71.16
2018-04-13T00:38:02.925Z,71.06
2018-04-13T00:39:02.896Z,70.67
2018-04-13T00:40:02.896Z,70.94
2018-04-13T00:41:02.901Z,71.35
2018-04-13T00:42:03.068Z,70.9
2018-04-13T00:43:02.901Z,71.71
2018-04-13T00:44:02.913Z,71.86
2018-04-13T00:45:02.902Z,70.79
2018-04-13T00:46:02.902Z,71.1
2018-04-13T00:47:03.026Z,70.99
2018-04-13T00:48:02.891Z,71.45
2018-04-13T00:49:02.918Z,71.08
2018-04-13T00:50:02.906Z,71.79
2018-04-13T00:51:02.886Z,71.2
2018-04-13T00:52:02.920Z,71.74
2018-04-13T00:53:02.884Z,72.26
2018-04-13T00:54:02.889Z,71
2018-04-13T00:55:02.913Z,70.74
2018-04-13T00:56:02.912Z,71.09
2018-04-13T00:57:02.960Z,71.98
2018-04-13T00:58:02.880Z,71.19
2018-04-13T00:59:02.924Z,71.22
2018-04-13T01:00:02.886Z,71.68
2018-04-13T01:01:02.888Z,70.95
2018-04-13T01:02:02.949Z,71.18
2018-04-13T01:03:02.865Z,71.57
2018-04-13T01:04:03.135Z,71.56
2018-04-13T01:05:02.863Z,71.43
2018-04-13T01:06:02.856Z,70.97
2018-04-13T01:07:02.869Z,71.07
2018-04-13T01:08:02.892Z,71.93
2018-04-13T01:09:02.874Z,71.69
2018-04-13T01:10:02.858Z,71.52
2018-04-13T01:11:02.860Z,71.33
2018-04-13T01:12:02.873Z,71.07
2018-04-13T01:13:02.853Z,71.89
2018-04-13T01:14:02.934Z,72.05
2018-04-13T01:15:02.924Z,72.32
2018-04-13T01:16:02.850Z,72.31
2018-04-13T01:17:02.890Z,72.01
2018-04-13T01:18:02.838Z,71.84
2018-04-13T01:19:03.113Z,71.89
2018-04-13T01:20:02.839Z,71.85
2018-04-13T01:21:02.910Z,71.55
2018-04-13T01:22:02.887Z,71.53
2018-04-13T01:23:02.875Z,71.4
2018-04-13T01:24:02.875Z,71.95
2018-04-13T01:25:02.852Z,71.6
2018-04-13T01:26:02.864Z,72.39
2018-04-13T01:27:02.866Z,71.17
2018-04-13T01:28:02.887Z,71.43
2018-04-13T01:29:02.812Z,70.86
2018-04-13T01:30:02.866Z,70.93
2018-04-13T01:31:02.824Z,71.41
2018-04-13T01:32:02.826Z,71.2
2018-04-13T01:33:02.842Z,71.75
2018-04-13T01:34:02.841Z,71.82
2018-04-13T01:35:02.825Z,72.74
2018-04-13T01:36:02.817Z,72.62
2018-04-13T01:37:02.958Z,72.7
2018-04-13T01:38:02.823Z,72.28
2018-04-13T01:39:02.829Z,72.8
2018-04-13T01:40:02.842Z,72.65
2018-04-13T01:41:02.800Z,73.27
2018-04-13T01:42:02.823Z,72.5
2018-04-13T01:43:02.806Z,72.21
2018-04-13T01:44:02.803Z,72.45
2018-04-13T01:45:02.811Z,72.41
2018-04-13T01:46:02.825Z,73.6
2018-04-13T01:47:02.853Z,73.56
2018-04-13T01:48:02.808Z,73.44
2018-04-13T01:49:02.821Z,73.83
2018-04-13T01:50:02.850Z,74.08
2018-04-13T01:51:02.832Z,74.26
2018-04-13T01:52:02.813Z,73.74
2018-04-13T01:53:02.802Z,73.75
2018-04-13T01:54:02.790Z,73.54
2018-04-13T01:55:02.865Z,74.04
2018-04-13T01:56:02.792Z,73.72
2018-04-13T01:57:02.779Z,73.98
2018-04-13T01:58:02.857Z,72.84
2018-04-13T01:59:02.794Z,74.61
2018-04-13T02:00:02.887Z,73.36
2018-04-13T02:01:02.795Z,73.38
2018-04-13T02:02:02.780Z,74.09
2018-04-13T02:03:02.872Z,73.89
2018-04-13T02:04:02.772Z,73.88
2018-04-13T02:05:02.881Z,74.13
2018-04-13T02:06:02.770Z,73.76
2018-04-13T02:07:02.782Z,73.98
2018-04-13T02:08:02.847Z,74.46
2018-04-13T02:09:02.776Z,73.95
2018-04-13T02:10:02.794Z,74.02
2018-04-13T02:11:02.811Z,73.91
2018-04-13T02:12:02.792Z,73.89
2018-04-13T02:13:02.764Z,74.37
2018-04-13T02:14:02.905Z,73.17
2018-04-13T02:15:02.772Z,73.57
2018-04-13T02:16:02.772Z,72.93
2018-04-13T02:17:02.781Z,72.87
2018-04-13T02:18:02.748Z,73.13
2018-04-13T02:19:02.744Z,74.27
2018-04-13T02:20:02.744Z,74.22
2018-04-13T02:21:02.751Z,74.06
2018-04-13T02:22:02.770Z,73.77
2018-04-13T02:23:02.760Z,74.47
2018-04-13T02:24:02.844Z,74.69
2018-04-13T02:25:02.878Z,74.79
2018-04-13T02:26:03.089Z,74.75
2018-04-13T02:27:02.753Z,74.72
2018-04-13T02:28:02.753Z,73.64
2018-04-13T02:29:02.782Z,73.71
2018-04-13T02:30:02.722Z,74.53
2018-04-13T02:31:02.751Z,74.92
2018-04-13T02:32:02.739Z,74.35
2018-04-13T02:33:02.763Z,74.14
2018-04-13T02:34:02.894Z,73.87
2018-04-13T02:35:02.758Z,74.65
2018-04-13T02:36:02.739Z,74.94
2018-04-13T02:37:02.738Z,74.89
2018-04-13T02:38:02.744Z,74.79
2018-04-13T02:39:02.760Z,75
2018-04-13T02:40:02.735Z,74.78
2018-04-13T02:41:02.743Z,74.52
2018-04-13T02:42:02.718Z,74.93
2018-04-13T02:43:02.716Z,73.93
2018-04-13T02:44:02.732Z,74.15
2018-04-13T02:45:02.716Z,73.78
2018-04-13T02:46:02.716Z,74.31
2018-04-13T02:47:02.710Z,74.7
2018-04-13T02:48:02.716Z,73.93
2018-04-13T02:49:02.735Z,74.81
2018-04-13T02:50:02.733Z,75.99
2018-04-13T02:51:02.700Z,75.34
2018-04-13T02:52:02.703Z,75.03
2018-04-13T02:53:02.700Z,75.38
2018-04-13T02:54:02.724Z,75.2
2018-04-13T02:55:02.692Z,75.05
2018-04-13T02:56:02.693Z,74.91
2018-04-13T02:57:02.705Z,75.6
2018-04-13T02:58:02.702Z,76.1
2018-04-13T02:59:02.934Z,76.47
2018-04-13T03:00:02.701Z,76.2
2018-04-13T03:01:02.704Z,76.05
2018-04-13T03:02:02.693Z,76.51
2018-04-13T03:03:02.693Z,76.49
2018-04-13T03:04:02.705Z,76.89
2018-04-13T03:05:02.696Z,76.42
2018-04-13T03:06:02.674Z,76.21
2018-04-13T03:07:02.671Z,75.51
2018-04-13T03:08:02.675Z,76.2
2018-04-13T03:09:02.693Z,76.11
2018-04-13T03:10:02.677Z,76
2018-04-13T03:11:02.683Z,75.22
2018-04-13T03:12:02.675Z,75.78
2018-04-13T03:13:02.703Z,75.52
2018-04-13T03:14:02.690Z,75.08
2018-04-13T03:15:02.665Z,74.81
2018-04-13T03:16:02.663Z,74.73
2018-04-13T03:17:02.670Z,75.24
2018-04-13T03:18:02.664Z,74.4
2018-04-13T03:19:02.701Z,74.82
2018-04-13T03:20:02.663Z,74.06
2018-04-13T03:21:02.650Z,73.87
2018-04-13T03:22:02.653Z,75.15
2018-04-13T03:23:02.649Z,75.16
2018-04-13T03:24:02.677Z,75.11
2018-04-13T03:25:02.669Z,74.94
2018-04-13T03:26:02.744Z,74.92
2018-04-13T03:27:02.670Z,74.95
2018-04-13T03:28:02.662Z,74.79
2018-04-13T03:29:02.676Z,74.86
2018-04-13T03:30:02.635Z,75.64
2018-04-13T03:31:02.679Z,75.41
2018-04-13T03:32:02.746Z,75.19
2018-04-13T03:33:02.660Z,75.46
2018-04-13T03:34:02.809Z,75
2018-04-13T03:35:02.661Z,75.46
2018-04-13T03:36:02.639Z,74.85
2018-04-13T03:37:02.656Z,75.91
2018-04-13T03:38:02.655Z,75.34
2018-04-13T03:39:02.773Z,75.69
2018-04-13T03:40:02.637Z,75.32
2018-04-13T03:41:02.629Z,75.82
2018-04-13T03:42:02.629Z,76.02
2018-04-13T03:43:02.688Z,75.88
2018-04-13T03:44:02.614Z,76.19
2018-04-13T03:45:02.634Z,76.23
2018-04-13T03:46:02.619Z,76
2018-04-13T03:47:02.621Z,75.17
2018-04-13T03:48:02.622Z,75.06
2018-04-13T03:49:02.614Z,75.09
2018-04-13T03:50:02.671Z,76.5
2018-04-13T03:51:02.618Z,75.95
2018-04-13T03:52:02.616Z,75.84
2018-04-13T03:53:02.666Z,76.52
2018-04-13T03:54:02.615Z,76.41
2018-04-13T03:55:02.628Z,76.58
2018-04-13T03:56:02.597Z,76.76
2018-04-13T03:57:02.668Z,76.6
2018-04-13T03:58:02.596Z,76.73
2018-04-13T03:59:02.707Z,77.09
2018-04-13T04:00:02.630Z,77.75
2018-04-13T04:01:02.588Z,78.15
2018-04-13T04:02:02.741Z,77.97
2018-04-13T04:03:02.602Z,77.74
2018-04-13T04:04:02.684Z,76.86
2018-04-13T04:05:02.619Z,76.7
2018-04-13T04:06:02.614Z,76.62
2018-04-13T04:07:02.573Z,76.86
2018-04-13T04:08:02.583Z,77.21
2018-04-13T04:09:02.629Z,76.92
2018-04-13T04:10:02.620Z,77.42
2018-04-13T04:11:02.655Z,76.52
2018-04-13T04:12:02.579Z,76.71
2018-04-13T04:13:02.598Z,76.86
2018-04-13T04:14:02.575Z,76.15
2018-04-13T04:15:02.602Z,76.34
2018-04-13T04:16:02.636Z,77.24
2018-04-13T04:17:02.628Z,76.91
2018-04-13T04:18:02.689Z,76.55
2018-04-13T04:19:02.578Z,75.72
2018-04-13T04:20:02.571Z,76.34
2018-04-13T04:21:02.704Z,77.39
2018-04-13T04:22:02.693Z,77.03
2018-04-13T04:23:02.577Z,77.07
2018-04-13T04:24:02.584Z,76.75
2018-04-13T04:25:02.578Z,76.45
2018-04-13T04:26:02.547Z,76.9
2018-04-13T04:27:02.593Z,76.52
2018-04-13T04:28:02.906Z,76.28
2018-04-13T04:29:02.555Z,76.04
2018-04-13T04:30:02.606Z,76.54
2018-04-13T04:31:02.557Z,76.85
2018-04-13T04:32:02.562Z,76.91
2018-04-13T04:33:02.563Z,76.7
2018-04-13T04:34:02.574Z,76.33
2018-04-13T04:35:02.583Z,77.27
2018-04-13T04:36:02.544Z,77.3
2018-04-13T04:37:02.536Z,76.86
2018-04-13T04:38:02.575Z,76.4
2018-04-13T04:39:02.531Z,76.74
2018-04-13T04:40:02.551Z,76.29
2018-04-13T04:41:02.543Z,76.2
2018-04-13T04:42:02.528Z,75.93
2018-04-13T04:43:02.557Z,76.32
2018-04-13T04:44:02.569Z,76.9
2018-04-13T04:45:02.544Z,76.61
2018-04-13T04:46:02.527Z,76.05
2018-04-13T04:47:02.525Z,76.58
2018-04-13T04:48:02.549Z,76.26
2018-04-13T04:49:02.513Z,76.55
2018-04-13T04:50:02.607Z,77.01
2018-04-13T04:51:02.510Z,76.26
2018-04-13T04:52:02.513Z,76.48
2018-04-13T04:53:02.547Z,76.03
2018-04-13T04:54:02.516Z,76.53
2018-04-13T04:55:02.513Z,76.81
2018-04-13T04:56:02.512Z,77.07
2018-04-13T04:57:02.512Z,75.97
2018-04-13T04:58:02.590Z,76.03
2018-04-13T04:59:02.508Z,75.89
2018-04-13T05:00:02.628Z,76.59
2018-04-13T05:01:02.504Z,76.35
2018-04-13T05:02:02.501Z,76.44
2018-04-13T05:03:02.521Z,76.78
2018-04-13T05:04:02.507Z,75.75
2018-04-13T05:05:02.534Z,76.31
2018-04-13T05:06:02.501Z,76.01
2018-04-13T05:07:02.520Z,76.98
2018-04-13T05:08:02.673Z,76.03
2018-04-13T05:09:02.512Z,76.65
2018-04-13T05:10:02.600Z,76.65
2018-04-13T05:11:02.484Z,76.78
2018-04-13T05:12:02.514Z,76.84
2018-04-13T05:13:02.517Z,76.6
2018-04-13T05:14:02.485Z,77.07
2018-04-13T05:15:02.509Z,76.44
2018-04-13T05:16:02.573Z,76.72
2018-04-13T05:17:02.481Z,76.75
2018-04-13T05:18:02.482Z,76.17
2018-04-13T05:19:02.481Z,76.14
2018-04-13T05:20:02.501Z,78.11
2018-04-13T05:21:02.496Z,77.07
2018-04-13T05:22:02.483Z,78.72
2018-04-13T05:23:02.479Z,77.74
2018-04-13T05:24:02.580Z,77.94
2018-04-13T05:25:02.579Z,77.53
2018-04-13T05:26:02.471Z,77.69
2018-04-13T05:27:02.458Z,77.35
2018-04-13T05:28:02.473Z,78.42
2018-04-13T05:29:02.481Z,77.64
2018-04-13T05:30:02.477Z,77.8
2018-04-13T05:31:02.576Z,77.56
2018-04-13T05:32:02.518Z,77.65
2018-04-13T05:33:02.455Z,78.44
2018-04-13T05:34:02.473Z,77.47
2018-04-13T05:35:02.451Z,77.24
2018-04-13T05:36:02.447Z,77.97
2018-04-13T05:37:02.445Z,77.17
2018-04-13T05:38:02.445Z,77.52
2018-04-13T05:39:02.446Z,76.95
2018-04-13T05:40:02.536Z,77.97
2018-04-13T05:41:02.572Z,77.63
2018-04-13T05:42:02.453Z,78.04
2018-04-13T05:43:02.459Z,77.72
2018-04-13T05:44:02.433Z,77.63
2018-04-13T05:45:02.427Z,78.46
2018-04-13T05:46:02.462Z,77.42
2018-04-13T05:47:02.434Z,77.84
2018-04-13T05:48:02.473Z,77.5
2018-04-13T05:49:02.426Z,77.34
2018-04-13T05:50:02.431Z,77.95
2018-04-13T05:51:02.436Z,77.71
2018-04-13T05:52:02.428Z,77.26
2018-04-13T05:53:02.449Z,76.83
2018-04-13T05:54:02.425Z,77.12
2018-04-13T05:55:02.418Z,77.43
2018-04-13T05:56:02.415Z,77.18
2018-04-13T05:57:02.424Z,77.53
2018-04-13T05:58:02.574Z,78.22
2018-04-13T05:59:02.410Z,78.12
2018-04-13T06:00:02.413Z,77.34
2018-04-13T06:01:02.412Z,78.43
2018-04-13T06:02:02.420Z,77.57
2018-04-13T06:03:02.430Z,77.55
2018-04-13T06:04:02.460Z,77.38
2018-04-13T06:05:02.511Z,76.85
2018-04-13T06:06:02.428Z,77.24
2018-04-13T06:07:02.408Z,78.26
2018-04-13T06:08:02.420Z,78.44
2018-04-13T06:09:02.399Z,78.25
2018-04-13T06:10:02.525Z,77.96
2018-04-13T06:11:02.408Z,77.91
2018-04-13T06:12:02.395Z,77.69
2018-04-13T06:13:02.417Z,78.35
2018-04-13T06:14:02.396Z,77.37
2018-04-13T06:15:02.386Z,77.5
2018-04-13T06:16:02.383Z,77.22
2018-04-13T06:17:02.385Z,77.46
2018-04-13T06:18:02.429Z,77.34
2018-04-13T06:19:02.522Z,77.18
2018-04-13T06:20:02.400Z,77.91
2018-04-13T06:21:02.392Z,77.81
2018-04-13T06:22:02.375Z,77.27
2018-04-13T06:23:02.373Z,77.24
2018-04-13T06:24:02.377Z,77.37
2018-04-13T06:25:02.451Z,77.43
2018-04-13T06:26:02.390Z,77.59
2018-04-13T06:27:02.378Z,76.98
2018-04-13T06:28:02.683Z,77.87
2018-04-13T06:29:02.414Z,77
2018-04-13T06:30:02.371Z,77.64
2018-04-13T06:31:02.361Z,77.51
2018-04-13T06:32:02.367Z,77.67
2018-04-13T06:33:02.396Z,77.2
2018-04-13T06:34:02.368Z,77.56
2018-04-13T06:35:02.431Z,76.89
2018-04-13T06:36:02.369Z,77.11
2018-04-13T06:37:02.367Z,76.96
2018-04-13T06:38:02.381Z,77.82
2018-04-13T06:39:02.361Z,77.03
2018-04-13T06:40:02.374Z,77.26
2018-04-13T06:41:02.352Z,77.27
2018-04-13T06:42:02.452Z,77.26
2018-04-13T06:43:02.423Z,76.67
2018-04-13T06:44:02.409Z,76.68
2018-04-13T06:45:02.369Z,76.59
2018-04-13T06:46:02.408Z,77.08
2018-04-13T06:47:02.361Z,77.68
2018-04-13T06:48:02.361Z,77.14
2018-04-13T06:49:02.346Z,78
2018-04-13T06:50:02.329Z,77.61
2018-04-13T06:51:02.345Z,77.81
2018-04-13T06:52:02.340Z,77.05
2018-04-13T06:53:02.350Z,77.49
2018-04-13T06:54:02.325Z,77.39
2018-04-13T06:55:02.331Z,77.85
2018-04-13T06:56:02.328Z,77
2018-04-13T06:57:02.347Z,76.68
2018-04-13T06:58:02.379Z,77.31
2018-04-13T06:59:02.324Z,76.87
2018-04-13T07:00:02.345Z,76.55
2018-04-13T07:01:02.343Z,77.06
2018-04-13T07:02:02.324Z,77.31
2018-04-13T07:03:02.340Z,77.55
2018-04-13T07:04:02.356Z,77.47
2018-04-13T07:05:02.344Z,77.64
2018-04-13T07:06:02.326Z,78.19
2018-04-13T07:07:02.339Z,77.95
2018-04-13T07:08:02.349Z,77.8
2018-04-13T07:09:02.324Z,77.17
2018-04-13T07:10:02.322Z,77.71
2018-04-13T07:11:02.337Z,77.43
2018-04-13T07:12:02.357Z,78.13
2018-04-13T07:13:02.327Z,77.19
2018-04-13T07:14:02.315Z,77.69
2018-04-13T07:15:02.321Z,78
2018-04-13T07:16:02.315Z,78.38
2018-04-13T07:17:02.334Z,78.25
2018-04-13T07:18:02.346Z,78.72
2018-04-13T07:19:02.377Z,78.86
2018-04-13T07:20:02.299Z,79.53
2018-04-13T07:21:02.330Z,79.22
2018-04-13T07:22:02.428Z,80.24
2018-04-13T07:23:02.305Z,80.06
2018-04-13T07:24:02.299Z,79.41
2018-04-13T07:25:02.729Z,79.6
2018-04-13T07:27:02.326Z,79.85
2018-04-13T07:28:02.318Z,79.71
2018-04-13T07:29:02.286Z,79.75
2018-04-13T07:30:02.345Z,79.55
2018-04-13T07:31:02.285Z,80.97
2018-04-13T07:32:02.291Z,80.66
2018-04-13T07:33:02.291Z,80.55
2018-04-13T07:34:02.288Z,80.59
2018-04-13T07:35:02.287Z,81.23
2018-04-13T07:36:02.300Z,80.96
2018-04-13T07:37:02.294Z,81.82
2018-04-13T07:38:02.368Z,82
2018-04-13T07:39:02.366Z,81.56
2018-04-13T07:40:02.410Z,81.65
2018-04-13T07:41:02.282Z,81.77
2018-04-13T07:42:02.300Z,82.31
2018-04-13T07:43:02.266Z,81.95
2018-04-13T07:44:02.289Z,82.15
2018-04-13T07:45:02.318Z,81.77
2018-04-13T07:46:02.275Z,81.57
2018-04-13T07:47:02.384Z,81.46
2018-04-13T07:48:02.343Z,81.19
2018-04-13T07:49:02.263Z,81.97
2018-04-13T07:50:02.300Z,82.61
2018-04-13T07:51:02.275Z,81.47
2018-04-13T07:52:02.285Z,82.79
2018-04-13T07:53:02.253Z,83.56
2018-04-13T07:54:02.253Z,84.04
2018-04-13T07:55:02.248Z,84.15
2018-04-13T07:56:02.249Z,84.49
2018-04-13T07:57:02.273Z,85.3
2018-04-13T07:58:02.800Z,87.02
2018-04-13T07:59:02.351Z,86.22
2018-04-13T08:00:02.235Z,85.01
2018-04-13T08:01:02.422Z,84.52
2018-04-13T08:02:02.254Z,84.42
2018-04-13T08:03:02.235Z,84.34
2018-04-13T08:04:02.224Z,84
2018-04-13T08:05:03.356Z,85
2018-04-13T08:06:02.266Z,85.03
2018-04-13T08:07:02.255Z,85.35
2018-04-13T08:08:02.219Z,84.33
2018-04-13T08:09:02.275Z,85.05
2018-04-13T08:10:02.220Z,84.95
2018-04-13T08:11:02.230Z,85.34
2018-04-13T08:12:02.254Z,85.38
2018-04-13T08:13:03.964Z,84.64
2018-04-13T08:14:02.621Z,84.7
2018-04-13T08:15:02.359Z,85.99
2018-04-13T08:16:02.267Z,86.43
2018-04-13T08:17:02.253Z,86.44
2018-04-13T08:18:02.273Z,85.7
2018-04-13T08:19:02.203Z,85.63
2018-04-13T08:20:02.218Z,86.06
2018-04-13T08:21:02.200Z,87.17
2018-04-13T08:22:02.448Z,86.84
2018-04-13T08:23:02.208Z,86.1
2018-04-13T08:24:02.289Z,86.59
2018-04-13T08:25:02.261Z,87.42
2018-04-13T08:26:02.207Z,87.66
2018-04-13T08:27:02.236Z,87.49
2018-04-13T08:28:02.291Z,87.5
2018-04-13T08:29:02.197Z,87.58
2018-04-13T08:30:02.358Z,87.11
2018-04-13T08:31:02.193Z,87.48
2018-04-13T08:32:02.238Z,87.13
2018-04-13T08:33:02.188Z,87.82
2018-04-13T08:34:02.177Z,86.69
2018-04-13T08:35:02.243Z,86.21
2018-04-13T08:36:02.198Z,86.04
2018-04-13T08:37:03.791Z,87.09
2018-04-13T08:38:02.221Z,86.95
2018-04-13T08:39:02.199Z,86.66
2018-04-13T08:40:02.189Z,86.37
2018-04-13T08:41:02.192Z,86.5
2018-04-13T08:42:02.166Z,86.19
2018-04-13T08:43:02.271Z,86.3
2018-04-13T08:44:02.180Z,85.95
2018-04-13T08:45:02.185Z,86.07
2018-04-13T08:46:02.224Z,86.29
2018-04-13T08:47:02.191Z,86.06
2018-04-13T08:48:02.170Z,86.5
2018-04-13T08:49:02.331Z,86.42
2018-04-13T08:50:02.307Z,85.97
2018-04-13T08:51:02.157Z,86.01
2018-04-13T08:52:02.159Z,85.72
2018-04-13T08:53:02.198Z,85.34
2018-04-13T08:54:02.156Z,84.69
2018-04-13T08:55:02.165Z,86.09
2018-04-13T08:56:02.160Z,86
2018-04-13T08:57:02.149Z,86.36
2018-04-13T08:58:02.217Z,86.68
2018-04-13T08:59:02.162Z,86.35
2018-04-13T09:00:02.176Z,86.34
2018-04-13T09:01:02.183Z,85.56
2018-04-13T09:02:02.528Z,85.77
2018-04-13T09:03:02.157Z,86.02
2018-04-13T09:04:02.135Z,87.01
2018-04-13T09:05:02.140Z,86.77
2018-04-13T09:06:02.137Z,86.73
2018-04-13T09:07:02.161Z,86.79
2018-04-13T09:08:02.151Z,86.82
2018-04-13T09:09:02.125Z,86.04
2018-04-13T09:10:02.140Z,86.89
2018-04-13T09:11:02.168Z,87.41
2018-04-13T09:12:02.157Z,87.23
2018-04-13T09:13:02.175Z,86.72
2018-04-13T09:14:02.144Z,86.46
2018-04-13T09:15:02.135Z,87.24
2018-04-13T09:16:02.117Z,87.65
2018-04-13T09:17:02.159Z,87.44
2018-04-13T09:18:02.203Z,87.18
2018-04-13T09:19:02.114Z,87.72
2018-04-13T09:20:02.232Z,87.67
2018-04-13T09:21:02.131Z,87.84
2018-04-13T09:22:02.141Z,88.09
2018-04-13T09:23:02.112Z,88.22
2018-04-13T09:24:02.134Z,88.01
2018-04-13T09:25:02.141Z,87.89
2018-04-13T09:26:02.168Z,87.83
2018-04-13T09:27:02.146Z,87.35
2018-04-13T09:28:02.155Z,87.79
2018-04-13T09:29:02.110Z,88.06
2018-04-13T09:30:02.097Z,87.8
2018-04-13T09:31:02.082Z,88.48
2018-04-13T09:32:02.136Z,87.79
2018-04-13T09:33:02.114Z,88.35
2018-04-13T09:34:02.088Z,88.53
2018-04-13T09:35:02.099Z,87.48
2018-04-13T09:36:02.237Z,88.48
2018-04-13T09:37:02.111Z,87.94
2018-04-13T09:38:02.174Z,87.9
2018-04-13T09:39:02.093Z,87.82
2018-04-13T09:40:02.086Z,87.84
2018-04-13T09:41:02.116Z,87.12
2018-04-13T09:42:02.079Z,87.99
2018-04-13T09:43:02.126Z,88.38
2018-04-13T09:44:02.075Z,88.3
2018-04-13T09:45:02.073Z,88.35
2018-04-13T09:46:02.100Z,88.5
2018-04-13T09:47:02.259Z,89.38
2018-04-13T09:48:02.089Z,89.06
2018-04-13T09:49:02.092Z,89.08
2018-04-13T09:50:03.076Z,88.95
2018-04-13T09:51:02.195Z,88.78
2018-04-13T09:52:02.060Z,88.17
2018-04-13T09:53:02.082Z,87.67
2018-04-13T09:54:02.056Z,87.86
2018-04-13T09:55:02.049Z,87.29
2018-04-13T09:56:02.254Z,87.77
2018-04-13T09:57:02.053Z,86.73
2018-04-13T09:58:02.063Z,86.57
2018-04-13T09:59:02.068Z,86.89
2018-04-13T10:00:02.044Z,86.59
2018-04-13T10:01:02.053Z,86.85
2018-04-13T10:02:02.042Z,86.42
2018-04-13T10:03:02.037Z,86.57
2018-04-13T10:04:02.055Z,86.6
2018-04-13T10:05:02.031Z,86.96
2018-04-13T10:06:02.036Z,87.7
2018-04-13T10:07:02.039Z,86.55
2018-04-13T10:08:02.055Z,86.89
2018-04-13T10:09:02.023Z,86.09
2018-04-13T10:10:02.039Z,86.48
2018-04-13T10:11:02.037Z,86.52
2018-04-13T10:12:02.041Z,86.09
2018-04-13T10:13:02.041Z,86.28
2018-04-13T10:14:02.019Z,86.84
2018-04-13T10:15:02.024Z,86.51
2018-04-13T10:16:02.026Z,86.52
2018-04-13T10:17:02.025Z,86.33
2018-04-13T10:18:02.029Z,86.19
2018-04-13T10:19:02.009Z,86.34
2018-04-13T10:20:02.028Z,85.99
2018-04-13T10:21:02.011Z,86.97
2018-04-13T10:22:02.028Z,86.4
2018-04-13T10:23:02.032Z,86.58
2018-04-13T10:24:02.037Z,86.59
2018-04-13T10:25:02.084Z,86.77
2018-04-13T10:26:02.136Z,87.08
2018-04-13T10:27:02.032Z,88.1
2018-04-13T10:28:02.038Z,87.28
2018-04-13T10:29:02.045Z,87.24
2018-04-13T10:30:02.020Z,86.62
2018-04-13T10:31:01.996Z,87.29
2018-04-13T10:32:02.017Z,88.66
2018-04-13T10:33:02.005Z,87.64
2018-04-13T10:34:02.025Z,88.24
2018-04-13T10:35:02.011Z,88.14
2018-04-13T10:36:02.004Z,88.38
2018-04-13T10:37:02.010Z,87.09
2018-04-13T10:38:02.031Z,87.64
2018-04-13T10:39:02.011Z,87.83
2018-04-13T10:40:02.011Z,87.85
2018-04-13T10:41:01.976Z,87.45
2018-04-13T10:42:01.997Z,87.55
2018-04-13T10:43:01.990Z,87.26
2018-04-13T10:44:02.062Z,88.7
2018-04-13T10:45:02.047Z,88.8
2018-04-13T10:46:01.996Z,87.83
2018-04-13T10:47:01.989Z,88.33
2018-04-13T10:48:01.994Z,88.23
2018-04-13T10:49:02.009Z,88.23
2018-04-13T10:50:02.005Z,89.93
2018-04-13T10:51:02.012Z,89.7
2018-04-13T10:52:01.995Z,88.33
2018-04-13T10:53:01.998Z,89.41
2018-04-13T10:54:01.994Z,89.59
2018-04-13T10:55:02.051Z,88.61
2018-04-13T10:56:01.975Z,89.83
2018-04-13T10:57:01.984Z,89.07
2018-04-13T10:58:02.059Z,90.2
2018-04-13T10:59:02.019Z,88.56
2018-04-13T11:00:01.985Z,89.63
2018-04-13T11:01:01.977Z,88.81
2018-04-13T11:02:01.961Z,89.42
2018-04-13T11:03:01.991Z,88.44
2018-04-13T11:04:01.948Z,89.09
2018-04-13T11:05:01.967Z,89.29
2018-04-13T11:06:01.973Z,88.73
2018-04-13T11:07:01.962Z,88.58
2018-04-13T11:08:01.951Z,89.35
2018-04-13T11:09:01.959Z,88.75
2018-04-13T11:10:01.966Z,89.41
2018-04-13T11:11:01.959Z,89.7
2018-04-13T11:12:01.972Z,89.73
2018-04-13T11:13:01.961Z,88.8
2018-04-13T11:14:02.315Z,88.7
2018-04-13T11:15:01.952Z,89.14
2018-04-13T11:16:01.939Z,89.4
2018-04-13T11:17:01.926Z,89.09
2018-04-13T11:18:01.964Z,88.63
2018-04-13T11:19:01.962Z,88.98
2018-04-13T11:20:01.941Z,89.53
2018-04-13T11:21:01.922Z,89.47
2018-04-13T11:22:01.916Z,88.85
2018-04-13T11:23:01.919Z,89.47
2018-04-13T11:24:01.912Z,88.99
2018-04-13T11:25:01.919Z,89.06
2018-04-13T11:26:01.961Z,89.4
2018-04-13T11:27:02.134Z,89.24
2018-04-13T11:28:01.954Z,89.74
2018-04-13T11:29:01.961Z,90.14
2018-04-13T11:30:02.118Z,89.16
2018-04-13T11:31:01.951Z,88.4
2018-04-13T11:32:02.032Z,88.77
2018-04-13T11:33:01.914Z,88.85
2018-04-13T11:34:01.898Z,88.86
2018-04-13T11:35:01.905Z,89.45
2018-04-13T11:36:01.895Z,89.09
2018-04-13T11:37:02.024Z,88.93
2018-04-13T11:38:01.926Z,89.53
2018-04-13T11:39:01.925Z,89.94
2018-04-13T11:40:01.893Z,89.68
2018-04-13T11:41:01.929Z,89.55
2018-04-13T11:42:01.919Z,89.43
2018-04-13T11:43:01.905Z,89.54
2018-04-13T11:44:01.909Z,89.3
2018-04-13T11:45:01.882Z,89.52
2018-04-13T11:46:01.877Z,89.92
2018-04-13T11:47:02.009Z,89.48
2018-04-13T11:48:01.881Z,90.11
2018-04-13T11:49:01.968Z,90
2018-04-13T11:50:02.038Z,89.5
2018-04-13T11:51:01.874Z,89.18
2018-04-13T11:52:01.919Z,89.47
2018-04-13T11:53:01.870Z,89.39
2018-04-13T11:54:01.903Z,90.13
2018-04-13T11:55:01.901Z,89.84
2018-04-13T11:56:01.895Z,89.94
2018-04-13T11:57:01.886Z,90.02
2018-04-13T11:58:01.871Z,89.77
2018-04-13T11:59:01.932Z,90.23
2018-04-13T12:00:01.944Z,89.66
2018-04-13T12:01:01.869Z,89.71
2018-04-13T12:02:01.878Z,90.26
2018-04-13T12:03:01.862Z,90.24
2018-04-13T12:04:01.900Z,90.4
2018-04-13T12:05:01.868Z,90.04
2018-04-13T12:06:01.875Z,89.4
2018-04-13T12:07:01.866Z,89.39
2018-04-13T12:08:01.860Z,89.64
2018-04-13T12:09:01.874Z,89.9
2018-04-13T12:10:01.841Z,89.97
2018-04-13T12:11:01.853Z,89.76
2018-04-13T12:12:01.839Z,89.8
2018-04-13T12:13:01.857Z,89.8
2018-04-13T12:14:01.837Z,89.48
2018-04-13T12:15:01.861Z,89.44
2018-04-13T12:16:01.883Z,90.06
2018-04-13T12:17:01.851Z,89.82
2018-04-13T12:18:01.866Z,89.86
2018-04-13T12:19:01.856Z,89.78
2018-04-13T12:20:01.835Z,90.37
2018-04-13T12:21:01.827Z,90.31
2018-04-13T12:22:01.820Z,89.46
2018-04-13T12:23:01.862Z,89.89
2018-04-13T12:24:01.844Z,90.18
2018-04-13T12:25:01.871Z,89.91
2018-04-13T12:26:01.850Z,90.38
2018-04-13T12:27:01.841Z,90.22
2018-04-13T12:28:01.830Z,90.22
2018-04-13T12:29:01.870Z,90.28
2018-04-13T12:30:01.877Z,90.4
2018-04-13T12:31:01.810Z,90.15
2018-04-13T12:32:01.922Z,90.43
2018-04-13T12:33:01.880Z,91.64
2018-04-13T12:34:01.811Z,90.6
2018-04-13T12:35:01.942Z,90.85
2018-04-13T12:36:01.867Z,90.8
2018-04-13T12:37:01.864Z,91.47
2018-04-13T12:38:01.861Z,90.87
2018-04-13T12:39:01.855Z,91.05
2018-04-13T12:40:01.787Z,91.09
2018-04-13T12:41:02.694Z,90.68
2018-04-13T12:42:01.894Z,91.09
2018-04-13T12:43:02.156Z,90.68
2018-04-13T12:44:01.813Z,91.42
2018-04-13T12:45:01.811Z,91.04
2018-04-13T12:46:01.791Z,91.19
2018-04-13T12:47:01.837Z,91.12
2018-04-13T12:48:01.781Z,91.13
2018-04-13T12:49:01.896Z,90.89
2018-04-13T12:50:03.856Z,91
2018-04-13T12:51:01.819Z,90.69
2018-04-13T12:52:02.380Z,91.08
2018-04-13T12:53:01.850Z,91.3
2018-04-13T12:54:01.814Z,91.07
2018-04-13T12:55:02.793Z,91.1
2018-04-13T12:56:01.952Z,91.57
2018-04-13T12:57:01.915Z,91.25